createdAt,value
2023-05-07T00:01:29.723Z,100.00
2023-05-07T00:03:56.601Z,100.00
2023-05-07T00:06:23.697Z,100.00
2023-05-07T00:08:50.583Z,100.00
2023-05-07T00:11:17.251Z,100.00
2023-05-07T00:13:43.909Z,100.00
2023-05-07T00:16:10.687Z,100.00
2023-05-07T00:18:37.357Z,100.00
2023-05-07T00:21:04.215Z,100.00
2023-05-07T00:23:30.879Z,100.00
2023-05-07T00:25:57.732Z,100.00
2023-05-07T00:28:24.482Z,100.00
2023-05-07T00:30:51.176Z,100.00
2023-05-07T00:33:17.823Z,100.00
2023-05-07T00:35:44.516Z,100.00
2023-05-07T00:38:11.220Z,100.00
2023-05-07T00:40:37.913Z,100.00
2023-05-07T00:43:04.695Z,100.00
2023-05-07T00:45:31.728Z,100.00
2023-05-07T00:48:03.303Z,100.00
2023-05-07T00:50:30.956Z,100.00
2023-05-07T00:52:57.935Z,100.00
2023-05-07T00:55:25.444Z,100.00
2023-05-07T00:57:52.642Z,100.00
2023-05-07T01:00:19.808Z,100.00
2023-05-07T01:02:47.901Z,100.00
2023-05-07T01:05:17.684Z,100.00
2023-05-07T01:07:45.341Z,100.00
2023-05-07T01:10:13.441Z,100.00
2023-05-07T01:12:42.405Z,100.00
2023-05-07T01:15:10.505Z,100.00
2023-05-07T01:17:39.237Z,100.00
2023-05-07T01:20:09.916Z,100.00
2023-05-07T01:22:38.937Z,100.00
2023-05-07T01:25:11.244Z,100.00
2023-05-07T01:27:42.710Z,100.00
2023-05-07T01:30:10.092Z,100.00
2023-05-07T01:32:42.748Z,100.00
2023-05-07T01:35:13.282Z,100.00
2023-05-07T01:37:41.762Z,100.00
2023-05-07T01:40:09.712Z,100.00
2023-05-07T01:42:36.933Z,100.00
2023-05-07T01:45:04.626Z,100.00
2023-05-07T01:47:32.206Z,100.00
2023-05-07T01:49:59.258Z,100.00
2023-05-07T01:52:26.197Z,100.00
2023-05-07T01:54:52.867Z,100.00
2023-05-07T01:57:19.697Z,100.00
2023-05-07T01:59:46.545Z,100.00
2023-05-07T02:02:13.378Z,100.00
2023-05-07T02:04:43.262Z,100.00
2023-05-07T02:07:11.176Z,100.00
2023-05-07T02:09:38.041Z,100.00
2023-05-07T02:12:05.485Z,100.00
2023-05-07T02:14:33.394Z,100.00
2023-05-07T02:17:00.009Z,100.00
2023-05-07T02:19:26.769Z,100.00
2023-05-07T02:21:54.082Z,100.00
2023-05-07T02:24:21.112Z,100.00
2023-05-07T02:26:47.841Z,100.00
2023-05-07T02:29:14.555Z,100.00
2023-05-07T02:31:41.651Z,100.00
2023-05-07T02:34:08.359Z,100.00
2023-05-07T02:36:35.076Z,100.00
2023-05-07T02:39:06.942Z,100.00
2023-05-07T02:41:33.668Z,100.00
2023-05-07T02:44:00.478Z,100.00
2023-05-07T02:46:27.644Z,100.00
2023-05-07T02:49:00.973Z,100.00
2023-05-07T02:51:28.256Z,100.00
2023-05-07T02:53:57.566Z,100.00
2023-05-07T02:56:24.337Z,100.00
2023-05-07T02:58:51.006Z,100.00
2023-05-07T03:01:19.120Z,100.00
2023-05-07T03:04:04.728Z,100.00
2023-05-07T03:06:31.595Z,100.00
2023-05-07T03:08:58.237Z,100.00
2023-05-07T03:11:24.980Z,100.00
2023-05-07T03:13:51.644Z,100.00
2023-05-07T03:16:21.066Z,100.00
2023-05-07T03:18:47.857Z,100.00
2023-05-07T03:21:14.589Z,100.00
2023-05-07T03:23:41.655Z,100.00
2023-05-07T03:26:08.401Z,100.00
2023-05-07T03:28:35.151Z,100.00
2023-05-07T03:31:06.156Z,100.00
2023-05-07T03:33:36.568Z,100.00
2023-05-07T03:36:03.512Z,100.00
2023-05-07T03:38:30.520Z,100.00
2023-05-07T03:40:58.290Z,100.00
2023-05-07T03:43:25.092Z,100.00
2023-05-07T03:45:59.450Z,100.00
2023-05-07T03:48:28.542Z,100.00
2023-05-07T03:50:59.300Z,100.00
2023-05-07T03:53:29.827Z,100.00
2023-05-07T03:55:56.515Z,100.00
2023-05-07T03:58:23.214Z,100.00
2023-05-07T04:00:50.925Z,100.00
2023-05-07T04:03:25.766Z,100.00
2023-05-07T04:05:53.292Z,100.00
2023-05-07T04:08:20.327Z,100.00
2023-05-07T04:10:55.840Z,100.00
2023-05-07T04:13:23.232Z,100.00
2023-05-07T04:15:50.264Z,100.00
2023-05-07T04:18:19.142Z,100.00
2023-05-07T04:20:49.013Z,100.00
2023-05-07T04:23:16.162Z,100.00
2023-05-07T04:25:43.439Z,100.00
2023-05-07T04:28:19.216Z,100.00
2023-05-07T04:30:46.613Z,100.00
2023-05-07T04:33:16.751Z,100.00
2023-05-07T04:35:44.376Z,100.00
2023-05-07T04:38:11.258Z,100.00
2023-05-07T04:40:38.367Z,100.00
2023-05-07T04:43:05.557Z,100.00
2023-05-07T04:45:38.862Z,100.00
2023-05-07T04:48:06.501Z,100.00
2023-05-07T04:50:33.786Z,100.00
2023-05-07T04:53:04.085Z,100.00
2023-05-07T04:55:31.299Z,100.00
2023-05-07T04:57:58.039Z,100.00
2023-05-07T05:00:26.254Z,100.00
2023-05-07T05:02:54.517Z,100.00
2023-05-07T05:05:22.734Z,100.00
2023-05-07T05:07:53.013Z,100.00
2023-05-07T05:10:21.218Z,100.00
2023-05-07T05:12:49.919Z,100.00
2023-05-07T05:15:16.749Z,100.00
2023-05-07T05:17:43.751Z,100.00
2023-05-07T05:20:13.690Z,100.00
2023-05-07T05:22:43.080Z,100.00
2023-05-07T05:25:11.675Z,100.00
2023-05-07T05:27:38.483Z,100.00
2023-05-07T05:30:06.815Z,100.00
2023-05-07T05:32:35.177Z,100.00
2023-05-07T05:35:02.851Z,100.00
2023-05-07T05:37:31.291Z,100.00
2023-05-07T05:39:59.868Z,100.00
2023-05-07T05:42:28.929Z,100.00
2023-05-07T05:44:55.829Z,100.00
2023-05-07T05:47:23.879Z,100.00
2023-05-07T05:49:52.079Z,100.00
2023-05-07T05:52:18.946Z,100.00
2023-05-07T05:54:46.722Z,100.00
2023-05-07T05:57:13.779Z,100.00
2023-05-07T05:59:40.943Z,100.00
2023-05-07T06:02:08.531Z,100.00
2023-05-07T06:04:35.342Z,100.00
2023-05-07T06:07:03.337Z,99.33
2023-05-07T06:09:30.089Z,99.26
2023-05-07T06:11:58.584Z,98.25
2023-05-07T06:14:27.500Z,97.40
2023-05-07T06:16:55.509Z,96.45
2023-05-07T06:19:25.027Z,95.26
2023-05-07T06:21:54.111Z,94.84
2023-05-07T06:24:20.863Z,93.61
2023-05-07T06:26:47.605Z,93.66
2023-05-07T06:29:14.368Z,92.69
2023-05-07T06:31:42.534Z,93.55
2023-05-07T06:34:11.064Z,93.31
2023-05-07T06:36:38.956Z,91.22
2023-05-07T06:39:25.904Z,91.17
2023-05-07T06:41:52.800Z,90.89
2023-05-07T06:44:26.860Z,90.49
2023-05-07T06:47:06.987Z,89.24
2023-05-07T06:49:34.738Z,89.98
2023-05-07T06:52:01.460Z,90.65
2023-05-07T06:54:30.346Z,89.17
2023-05-07T06:56:57.161Z,88.42
2023-05-07T06:59:25.818Z,86.27
2023-05-07T07:01:53.535Z,86.15
2023-05-07T07:04:20.845Z,86.99
2023-05-07T07:06:55.587Z,87.33
2023-05-07T07:09:24.115Z,85.75
2023-05-07T07:11:51.711Z,85.48
2023-05-07T07:14:18.460Z,85.21
2023-05-07T07:16:49.644Z,83.37
2023-05-07T07:19:18.056Z,84.20
2023-05-07T07:21:47.378Z,82.94
2023-05-07T07:24:20.049Z,82.33
2023-05-07T07:26:48.434Z,83.01
2023-05-07T07:29:15.228Z,82.04
2023-05-07T07:31:43.300Z,78.39
2023-05-07T07:34:10.834Z,78.27
2023-05-07T07:36:45.633Z,77.46
2023-05-07T07:39:16.724Z,76.67
2023-05-07T07:41:44.525Z,76.82
2023-05-07T07:44:16.080Z,76.99
2023-05-07T07:46:46.430Z,75.35
2023-05-07T07:49:13.821Z,74.18
2023-05-07T07:51:40.536Z,75.20
2023-05-07T07:54:07.635Z,75.14
2023-05-07T07:56:36.211Z,76.17
2023-05-07T07:59:04.469Z,75.97
2023-05-07T08:01:32.570Z,76.18
2023-05-07T08:04:00.112Z,74.51
2023-05-07T08:06:28.659Z,74.91
2023-05-07T08:08:56.308Z,74.69
2023-05-07T08:11:23.579Z,73.12
2023-05-07T08:13:51.407Z,70.28
2023-05-07T08:16:19.016Z,70.55
2023-05-07T08:18:46.042Z,72.06
2023-05-07T08:21:12.929Z,72.59
2023-05-07T08:23:39.734Z,72.04
2023-05-07T08:26:09.394Z,70.90
2023-05-07T08:28:37.028Z,70.89
2023-05-07T08:31:03.900Z,69.61
2023-05-07T08:33:35.162Z,68.87
2023-05-07T08:36:01.942Z,69.55
2023-05-07T08:38:29.092Z,68.61
2023-05-07T08:40:56.114Z,66.31
2023-05-07T08:43:27.406Z,66.26
2023-05-07T08:46:01.441Z,65.32
2023-05-07T08:48:32.133Z,63.32
2023-05-07T08:51:16.388Z,64.04
2023-05-07T08:53:43.757Z,62.89
2023-05-07T08:56:16.256Z,62.83
2023-05-07T08:58:46.359Z,60.16
2023-05-07T09:01:17.870Z,62.37
2023-05-07T09:03:48.411Z,63.07
2023-05-07T09:06:16.590Z,64.52
2023-05-07T09:08:53.936Z,64.60
2023-05-07T09:11:24.213Z,64.39
2023-05-07T09:13:57.308Z,63.33
2023-05-07T09:16:26.424Z,64.16
2023-05-07T09:18:55.080Z,62.31
2023-05-07T09:21:24.028Z,62.25
2023-05-07T09:23:54.763Z,62.65
2023-05-07T09:26:26.178Z,61.86
2023-05-07T09:28:53.088Z,60.74
2023-05-07T09:31:21.588Z,61.36
2023-05-07T09:33:49.325Z,62.33
2023-05-07T09:36:17.095Z,61.87
2023-05-07T09:38:46.255Z,61.11
2023-05-07T09:41:14.363Z,58.74
2023-05-07T09:43:54.961Z,58.06
2023-05-07T09:46:31.966Z,58.36
2023-05-07T09:49:03.355Z,58.39
2023-05-07T09:51:48.726Z,58.46
2023-05-07T09:54:16.570Z,55.12
2023-05-07T09:56:49.159Z,55.27
2023-05-07T09:59:17.828Z,54.24
2023-05-07T10:01:46.300Z,51.19
2023-05-07T10:04:15.238Z,50.10
2023-05-07T10:06:44.519Z,50.43
2023-05-07T10:09:12.404Z,50.31
2023-05-07T10:11:41.456Z,51.73
2023-05-07T10:14:08.334Z,52.38
2023-05-07T10:16:37.446Z,52.21
2023-05-07T10:19:10.932Z,51.75
2023-05-07T10:21:43.857Z,51.78
2023-05-07T10:24:18.001Z,51.24
2023-05-07T10:26:48.040Z,50.41
2023-05-07T10:29:26.954Z,49.36
2023-05-07T10:32:19.131Z,50.12
2023-05-07T10:34:50.114Z,50.24
2023-05-07T10:37:17.948Z,52.01
2023-05-07T10:39:45.394Z,52.15
2023-05-07T10:42:14.268Z,50.41
2023-05-07T10:44:46.324Z,50.95
2023-05-07T10:47:21.108Z,50.83
2023-05-07T10:49:51.530Z,49.50
2023-05-07T10:52:25.626Z,50.12
2023-05-07T10:55:22.667Z,50.49
2023-05-07T10:58:31.796Z,48.25
2023-05-07T11:01:53.365Z,47.27
2023-05-07T11:04:30.946Z,47.56
2023-05-07T11:07:28.958Z,46.17
2023-05-07T11:10:04.892Z,45.27
2023-05-07T11:12:40.216Z,44.69
2023-05-07T11:15:16.680Z,43.62
2023-05-07T11:18:00.997Z,44.37
2023-05-07T11:20:56.441Z,44.99
2023-05-07T11:23:36.883Z,44.40
2023-05-07T11:26:17.472Z,44.38
2023-05-07T11:28:45.296Z,45.30
2023-05-07T11:31:12.705Z,44.21
2023-05-07T11:33:41.128Z,44.33
2023-05-07T11:36:13.428Z,44.62
2023-05-07T11:38:45.713Z,44.25
2023-05-07T11:41:12.509Z,44.51
2023-05-07T11:43:41.050Z,45.36
2023-05-07T11:46:10.904Z,45.61
2023-05-07T11:48:37.757Z,44.76
2023-05-07T11:51:06.773Z,45.70
2023-05-07T11:53:38.408Z,47.51
2023-05-07T11:56:23.211Z,48.70
2023-05-07T11:58:50.709Z,49.49
2023-05-07T12:01:17.610Z,48.60
2023-05-07T12:03:48.982Z,49.30
2023-05-07T12:06:17.578Z,50.16
2023-05-07T12:08:47.906Z,51.21
2023-05-07T12:11:26.883Z,51.28
2023-05-07T12:13:58.978Z,50.45
2023-05-07T12:16:26.968Z,49.70
2023-05-07T12:18:56.135Z,50.30
2023-05-07T12:21:24.395Z,49.89
2023-05-07T12:23:51.710Z,50.15
2023-05-07T12:26:21.898Z,50.41
2023-05-07T12:28:50.198Z,50.85
2023-05-07T12:31:17.281Z,51.45
2023-05-07T12:33:44.208Z,51.54
2023-05-07T12:36:14.464Z,52.48
2023-05-07T12:38:42.035Z,52.78
2023-05-07T12:41:10.307Z,53.21
2023-05-07T12:43:37.382Z,53.63
2023-05-07T12:46:09.214Z,52.30
2023-05-07T12:48:39.849Z,52.47
2023-05-07T12:51:07.835Z,53.32
2023-05-07T12:53:34.882Z,52.94
2023-05-07T12:56:01.808Z,53.15
2023-05-07T12:58:34.811Z,53.31
2023-05-07T13:01:06.216Z,54.10
2023-05-07T13:03:35.175Z,54.21
2023-05-07T13:06:04.506Z,55.83
2023-05-07T13:08:38.502Z,54.10
2023-05-07T13:11:05.882Z,55.25
2023-05-07T13:13:34.134Z,55.23
2023-05-07T13:16:02.604Z,55.38
2023-05-07T13:18:32.045Z,54.93
2023-05-07T13:20:59.123Z,54.40
2023-05-07T13:23:26.136Z,55.00
2023-05-07T13:25:55.006Z,54.44
2023-05-07T13:28:22.260Z,55.13
2023-05-07T13:30:49.363Z,57.54
2023-05-07T13:33:17.145Z,58.06
2023-05-07T13:35:43.799Z,57.15
2023-05-07T13:38:10.607Z,58.25
2023-05-07T13:40:37.281Z,57.24
2023-05-07T13:43:04.090Z,57.45
2023-05-07T13:45:31.185Z,58.80
2023-05-07T13:47:58.334Z,59.27
2023-05-07T13:50:25.060Z,58.96
2023-05-07T13:52:51.944Z,58.93
2023-05-07T13:55:19.632Z,58.16
2023-05-07T13:57:47.214Z,58.20
2023-05-07T14:00:15.481Z,57.89
2023-05-07T14:02:42.456Z,57.63
2023-05-07T14:05:10.385Z,57.16
2023-05-07T14:07:37.417Z,57.17
2023-05-07T14:10:04.546Z,56.68
2023-05-07T14:12:32.465Z,58.16
2023-05-07T14:14:59.422Z,57.76
2023-05-07T14:17:27.944Z,57.33
2023-05-07T14:19:58.040Z,57.76
2023-05-07T14:22:24.795Z,57.37
2023-05-07T14:25:03.189Z,57.25
2023-05-07T14:27:33.459Z,57.88
2023-05-07T14:30:00.374Z,57.51
2023-05-07T14:32:27.117Z,56.71
2023-05-07T14:34:53.768Z,57.73
2023-05-07T14:37:21.160Z,57.92
2023-05-07T14:39:50.670Z,58.11
2023-05-07T14:42:18.438Z,58.73
2023-05-07T14:44:46.645Z,58.55
2023-05-07T14:47:14.126Z,58.24
2023-05-07T14:49:41.907Z,58.33
2023-05-07T14:52:11.166Z,58.83
2023-05-07T14:54:39.083Z,59.48
2023-05-07T14:57:07.162Z,58.75
2023-05-07T14:59:33.909Z,59.82
2023-05-07T15:02:01.988Z,60.27
2023-05-07T15:04:29.902Z,61.35
2023-05-07T15:06:57.193Z,61.43
2023-05-07T15:09:23.896Z,62.05
2023-05-07T15:11:50.625Z,62.02
2023-05-07T15:14:17.415Z,62.20
2023-05-07T15:16:44.359Z,61.71
2023-05-07T15:19:11.202Z,62.41
2023-05-07T15:21:38.038Z,62.64
2023-05-07T15:24:04.919Z,63.26
2023-05-07T15:26:31.577Z,64.10
2023-05-07T15:28:58.392Z,65.76
2023-05-07T15:31:26.416Z,67.35
2023-05-07T15:33:53.441Z,69.68
2023-05-07T15:36:21.538Z,70.91
2023-05-07T15:38:48.321Z,72.10
2023-05-07T15:41:15.159Z,73.41
2023-05-07T15:43:47.292Z,74.21
2023-05-07T15:46:18.900Z,75.91
2023-05-07T15:48:45.824Z,77.86
2023-05-07T15:51:13.451Z,78.62
2023-05-07T15:53:41.215Z,79.79
2023-05-07T15:56:08.510Z,79.62
2023-05-07T15:58:36.343Z,80.74
2023-05-07T16:01:04.833Z,80.79
2023-05-07T16:03:32.000Z,81.50
2023-05-07T16:06:00.889Z,82.62
2023-05-07T16:08:27.671Z,84.13
2023-05-07T16:10:54.721Z,84.74
2023-05-07T16:13:21.593Z,85.67
2023-05-07T16:15:48.505Z,86.15
2023-05-07T16:18:18.005Z,86.78
2023-05-07T16:20:44.751Z,87.19
2023-05-07T16:23:13.052Z,87.86
2023-05-07T16:25:39.848Z,88.21
2023-05-07T16:28:07.894Z,88.52
2023-05-07T16:30:34.728Z,89.66
2023-05-07T16:33:01.551Z,90.25
2023-05-07T16:35:28.351Z,91.26
2023-05-07T16:37:55.144Z,92.84
2023-05-07T16:40:21.877Z,96.52
2023-05-07T16:42:48.591Z,97.79
2023-05-07T16:45:15.902Z,100.00
2023-05-07T16:47:43.217Z,100.00
2023-05-07T16:50:10.248Z,100.00
2023-05-07T16:52:36.982Z,100.00
2023-05-07T16:55:03.831Z,100.00
2023-05-07T16:57:30.818Z,100.00
2023-05-07T16:59:59.076Z,100.00
2023-05-07T17:02:25.951Z,100.00
2023-05-07T17:04:52.794Z,100.00
2023-05-07T17:07:19.542Z,100.00
2023-05-07T17:09:46.237Z,100.00
2023-05-07T17:12:12.882Z,100.00
2023-05-07T17:14:39.583Z,100.00
2023-05-07T17:17:06.293Z,100.00
2023-05-07T17:19:32.976Z,100.00
2023-05-07T17:21:59.687Z,100.00
2023-05-07T17:24:26.378Z,100.00
2023-05-07T17:26:53.051Z,100.00
2023-05-07T17:29:20.139Z,100.00
2023-05-07T17:31:47.038Z,100.00
2023-05-07T17:34:15.152Z,100.00
2023-05-07T17:36:41.840Z,100.00
2023-05-07T17:39:08.700Z,100.00
2023-05-07T17:41:37.103Z,100.00
2023-05-07T17:44:04.020Z,100.00
2023-05-07T17:46:30.798Z,100.00
2023-05-07T17:48:58.040Z,100.00
2023-05-07T17:51:26.158Z,100.00
2023-05-07T17:53:52.869Z,100.00
2023-05-07T17:56:19.557Z,100.00
2023-05-07T17:58:58.870Z,100.00
2023-05-07T18:01:26.349Z,100.00
2023-05-07T18:03:53.300Z,100.00
2023-05-07T18:06:22.074Z,100.00
2023-05-07T18:08:49.229Z,100.00
2023-05-07T18:11:15.942Z,100.00
2023-05-07T18:13:42.643Z,100.00
2023-05-07T18:16:09.906Z,100.00
2023-05-07T18:18:36.700Z,100.00
2023-05-07T18:21:03.588Z,100.00
2023-05-07T18:23:30.321Z,100.00
2023-05-07T18:25:57.029Z,100.00
2023-05-07T18:28:23.721Z,100.00
2023-05-07T18:30:50.404Z,100.00
2023-05-07T18:33:17.160Z,100.00
2023-05-07T18:35:44.009Z,100.00
2023-05-07T18:38:11.130Z,100.00
2023-05-07T18:40:37.965Z,100.00
2023-05-07T18:43:06.985Z,100.00
2023-05-07T18:45:34.763Z,100.00
2023-05-07T18:48:01.744Z,100.00
2023-05-07T18:50:28.541Z,100.00
2023-05-07T18:52:55.321Z,100.00
2023-05-07T18:55:22.230Z,100.00
2023-05-07T18:57:49.377Z,100.00
2023-05-07T19:00:16.503Z,100.00
2023-05-07T19:02:43.182Z,100.00
2023-05-07T19:05:09.825Z,100.00
2023-05-07T19:07:36.517Z,100.00
2023-05-07T19:10:06.087Z,100.00
2023-05-07T19:12:33.157Z,100.00
2023-05-07T19:14:59.905Z,100.00
2023-05-07T19:17:26.654Z,100.00
2023-05-07T19:19:53.349Z,100.00
2023-05-07T19:22:20.025Z,100.00
2023-05-07T19:24:46.702Z,100.00
2023-05-07T19:27:13.380Z,100.00
2023-05-07T19:29:40.663Z,100.00
2023-05-07T19:32:07.512Z,100.00
2023-05-07T19:34:34.324Z,100.00
2023-05-07T19:37:00.981Z,100.00
2023-05-07T19:39:28.469Z,100.00
2023-05-07T19:41:55.178Z,100.00
2023-05-07T19:44:21.864Z,100.00
2023-05-07T19:46:48.567Z,100.00
2023-05-07T19:49:15.259Z,100.00
2023-05-07T19:51:42.001Z,100.00
2023-05-07T19:54:08.821Z,100.00
2023-05-07T19:56:35.695Z,100.00
2023-05-07T19:59:02.367Z,100.00
2023-05-07T20:01:29.102Z,100.00
2023-05-07T20:03:56.044Z,100.00
2023-05-07T20:06:23.452Z,100.00
2023-05-07T20:08:50.704Z,100.00
2023-05-07T20:11:17.532Z,100.00
2023-05-07T20:13:44.314Z,100.00
2023-05-07T20:16:11.084Z,100.00
2023-05-07T20:18:37.964Z,100.00
2023-05-07T20:21:05.343Z,100.00
2023-05-07T20:23:32.481Z,100.00
2023-05-07T20:25:59.638Z,100.00
2023-05-07T20:28:26.373Z,100.00
2023-05-07T20:30:53.106Z,100.00
2023-05-07T20:33:19.817Z,100.00
2023-05-07T20:35:46.587Z,100.00
2023-05-07T20:38:13.438Z,100.00
2023-05-07T20:40:41.310Z,100.00
2023-05-07T20:43:08.016Z,100.00
2023-05-07T20:45:34.876Z,100.00
2023-05-07T20:48:01.952Z,100.00
2023-05-07T20:50:28.806Z,100.00
2023-05-07T20:52:55.555Z,100.00
2023-05-07T20:55:22.384Z,100.00
2023-05-07T20:57:49.297Z,100.00
2023-05-07T21:00:17.554Z,100.00
2023-05-07T21:02:45.689Z,100.00
2023-05-07T21:05:12.679Z,100.00
2023-05-07T21:07:39.425Z,100.00
2023-05-07T21:10:06.576Z,100.00
2023-05-07T21:12:33.342Z,100.00
2023-05-07T21:15:00.030Z,100.00
2023-05-07T21:17:29.185Z,100.00
2023-05-07T21:19:56.148Z,100.00
2023-05-07T21:22:23.055Z,100.00
2023-05-07T21:24:49.683Z,100.00
2023-05-07T21:27:16.460Z,100.00
2023-05-07T21:29:43.285Z,100.00
2023-05-07T21:32:09.952Z,100.00
2023-05-07T21:34:36.615Z,100.00
2023-05-07T21:37:03.648Z,100.00
2023-05-07T21:39:30.684Z,100.00
2023-05-07T21:41:57.451Z,100.00
2023-05-07T21:44:24.132Z,100.00
2023-05-07T21:46:51.276Z,100.00
2023-05-07T21:49:18.078Z,100.00
2023-05-07T21:51:45.084Z,100.00
2023-05-07T21:54:12.144Z,100.00
2023-05-07T21:56:38.829Z,100.00
2023-05-07T21:59:05.590Z,100.00
2023-05-07T22:01:33.009Z,100.00
2023-05-07T22:04:00.208Z,100.00
2023-05-07T22:06:27.516Z,100.00
2023-05-07T22:08:54.277Z,100.00
2023-05-07T22:11:21.805Z,100.00
2023-05-07T22:13:48.684Z,100.00
2023-05-07T22:16:15.890Z,100.00
2023-05-07T22:18:43.815Z,100.00
2023-05-07T22:21:10.763Z,100.00
2023-05-07T22:23:37.584Z,100.00
2023-05-07T22:26:14.968Z,100.00
2023-05-07T22:28:41.668Z,100.00
2023-05-07T22:31:08.381Z,100.00
2023-05-07T22:33:35.612Z,100.00
2023-05-07T22:36:02.435Z,100.00
2023-05-07T22:38:29.408Z,100.00
2023-05-07T22:40:56.454Z,100.00
2023-05-07T22:43:23.280Z,100.00
2023-05-07T22:45:50.486Z,100.00
2023-05-07T22:48:17.218Z,100.00
2023-05-07T22:50:44.293Z,100.00
2023-05-07T22:53:11.128Z,100.00
2023-05-07T22:55:37.936Z,100.00
2023-05-07T22:58:04.625Z,100.00
2023-05-07T23:00:31.446Z,100.00
2023-05-07T23:02:58.275Z,100.00
2023-05-07T23:05:25.241Z,100.00
2023-05-07T23:07:52.129Z,100.00
2023-05-07T23:10:18.954Z,100.00
2023-05-07T23:12:49.425Z,100.00
2023-05-07T23:15:17.106Z,100.00
2023-05-07T23:17:44.298Z,100.00
2023-05-07T23:20:12.224Z,100.00
2023-05-07T23:22:39.374Z,100.00
2023-05-07T23:25:08.857Z,100.00
2023-05-07T23:27:36.066Z,100.00
2023-05-07T23:30:03.685Z,100.00
2023-05-07T23:32:33.522Z,100.00
2023-05-07T23:35:00.292Z,100.00
2023-05-07T23:37:27.042Z,100.00
2023-05-07T23:39:54.372Z,100.00
2023-05-07T23:42:21.508Z,100.00
2023-05-07T23:44:48.183Z,100.00
2023-05-07T23:47:14.951Z,100.00
2023-05-07T23:49:41.692Z,100.00
2023-05-07T23:52:08.704Z,100.00
2023-05-07T23:54:35.385Z,100.00
2023-05-07T23:57:03.467Z,100.00
2023-05-07T23:59:30.292Z,100.00
